Time;durP1;ratioP1;P1;durP2;ratioP2;P2;SDS_P1;SDS_P2;PMS_P1;PMS_P2;Temp;Humidity;BMP_temperature;BMP_pressure;BME280_temperature;BME280_humidity;BME280_pressure;Samples;Min_cycle;Max_cycle;Signal;HPM_P1;HPM_P2
2023/07/26 00:25:16;;;;;;;7.77;5.30;;;17.50;95.10;;;;;;5652055;24;20559;-85
2023/07/26 00:51:05;;;;;;;5.87;4.83;;;17.40;95.50;;;;;;5722624;24;20322;-84
2023/07/26 01:26:06;;;;;;;7.13;3.63;;;18.00;93.00;;;;;;5786640;23;21027;-88
2023/07/26 01:52:05;;;;;;;7.17;4.10;;;17.50;99.90;;;;;;5714693;24;21037;-85
2023/07/26 02:22:31;;;;;;;4.43;3.93;;;17.30;99.90;;;;;;5867255;23;20232;-83
2023/07/26 02:52:28;;;;;;;5.10;3.67;;;17.30;99.90;;;;;;5546294;24;20900;-84
2023/07/26 03:53:10;;;;;;;4.47;3.50;;;17.40;99.90;;;;;;5688593;24;20745;-84
2023/07/26 04:14:03;;;;;;;5.50;3.80;;;17.70;99.90;;;;;;5823894;23;20257;-85
2023/07/26 04:39:15;;;;;;;3.77;3.17;;;18.20;95.00;;;;;;5857020;23;20536;-82
2023/07/26 05:04:13;;;;;;;4.03;2.67;;;18.70;88.60;;;;;;5724013;24;20360;-84
2023/07/26 05:54:53;;;;;;;2.73;2.30;;;19.30;83.60;;;;;;5767326;23;20203;-84
2023/07/26 06:10:50;;;;;;;2.40;1.67;;;19.90;82.50;;;;;;5878274;23;20202;-87
2023/07/26 06:35:30;;;;;;;3.03;1.70;;;20.40;81.20;;;;;;5827816;23;20484;-86
2023/07/26 06:56:08;;;;;;;3.75;1.80;;;21.40;78.40;;;;;;5563067;25;20561;-85
2023/07/26 07:57:21;;;;;;;2.42;1.80;;;21.10;79.60;;;;;;5828646;23;20307;-86
2023/07/26 09:03:17;;;;;;;4.32;2.50;;;21.90;75.20;;;;;;5787472;24;20515;-83
2023/07/26 09:28:01;;;;;;;3.83;1.93;;;21.30;76.50;;;;;;5737388;24;20782;-87
2023/07/26 09:48:35;;;;;;;4.35;2.15;;;21.30;75.90;;;;;;5683453;24;20664;-82
2023/07/26 10:13:47;;;;;;;3.87;2.57;;;21.00;78.50;;;;;;5672482;24;20557;-86
2023/07/26 10:39:42;;;;;;;2.63;1.77;;;20.30;74.20;;;;;;5729558;24;20233;-84
2023/07/26 11:04:44;;;;;;;3.47;1.77;;;20.20;58.50;;;;;;5855238;24;20443;-86
2023/07/26 11:34:54;;;;;;;5.80;2.33;;;19.90;70.30;;;;;;5807290;24;21129;-87
2023/07/26 12:16:01;;;;;;;5.20;2.63;;;17.60;89.40;;;;;;5660749;24;20168;-84
2023/07/26 15:13:38;;;;;;;11.37;7.57;;;15.30;99.90;;;;;;6066744;23;20660;-84
2023/07/26 15:43:26;;;;;;;11.00;7.13;;;15.20;99.90;;;;;;5878731;24;20803;-84
2023/07/26 16:04:22;;;;;;;8.87;6.73;;;14.90;99.90;;;;;;5875725;23;20378;-87
2023/07/26 16:29:27;;;;;;;9.60;7.70;;;14.80;99.90;;;;;;5984936;23;20778;-85
2023/07/26 16:59:47;;;;;;;10.27;7.43;;;14.50;99.90;;;;;;5800145;24;20551;-86
2023/07/26 17:19:55;;;;;;;8.87;7.50;;;14.40;99.90;;;;;;5717079;24;20997;-84
2023/07/26 17:45:39;;;;;;;9.83;7.47;;;14.30;99.90;;;;;;5829256;24;20267;-84
2023/07/26 18:10:47;;;;;;;9.70;6.37;;;14.10;99.90;;;;;;5680837;24;20722;-86
2023/07/26 18:36:26;;;;;;;7.50;6.37;;;14.10;99.90;;;;;;5603143;25;20189;-85
2023/07/26 19:16:42;;;;;;;9.27;7.90;;;14.00;99.90;;;;;;5949527;23;20750;-84
2023/07/26 19:32:16;;;;;;;8.30;7.40;;;14.00;99.90;;;;;;5811977;24;20245;-85
2023/07/26 19:52:39;;;;;;;12.27;8.47;;;14.20;99.90;;;;;;5925363;23;20517;-85
2023/07/26 20:22:46;;;;;;;20.93;11.20;;;14.30;99.90;;;;;;5769995;24;20173;-83
2023/07/26 20:43:18;;;;;;;17.43;12.73;;;14.30;99.90;;;;;;5821742;24;20171;-84
2023/07/26 21:08:15;;;;;;;21.63;15.77;;;14.50;99.90;;;;;;5842758;24;20673;-85
2023/07/26 21:44:06;;;;;;;20.67;16.13;;;14.60;99.90;;;;;;5900868;23;20290;-85
2023/07/26 22:19:33;;;;;;;14.10;11.50;;;14.30;99.90;;;;;;5692925;24;20386;-86
2023/07/26 22:54:33;;;;;;;9.50;8.40;;;14.00;99.90;;;;;;5618775;24;20591;-85
2023/07/26 23:15:17;;;;;;;6.43;5.80;;;13.70;99.90;;;;;;5617227;25;20376;-86
2023/07/26 23:35:45;;;;;;;5.27;4.57;;;13.50;99.90;;;;;;5771429;24;20212;-86
